createdAt,value
2018-07-27T00:01:44.013Z,26.00
2018-07-27T00:04:24.793Z,25.90
2018-07-27T00:07:05.946Z,25.90
2018-07-27T00:09:46.808Z,25.80
2018-07-27T00:12:28.521Z,25.80
2018-07-27T00:15:10.085Z,25.70
2018-07-27T00:17:50.761Z,25.70
2018-07-27T00:20:31.690Z,25.70
2018-07-27T00:23:12.520Z,25.70
2018-07-27T00:25:53.173Z,25.60
2018-07-27T00:28:34.269Z,25.60
2018-07-27T00:31:15.554Z,25.80
2018-07-27T00:33:56.451Z,25.80
2018-07-27T00:39:18.813Z,25.90
2018-07-27T00:42:00.505Z,25.80
2018-07-27T00:44:41.519Z,25.80
2018-07-27T00:47:22.664Z,25.70
2018-07-27T00:50:03.664Z,25.70
2018-07-27T00:55:25.749Z,25.70
2018-07-27T00:58:06.468Z,25.70
2018-07-27T01:00:47.258Z,25.70
2018-07-27T01:03:28.045Z,25.70
2018-07-27T01:06:08.885Z,25.60
2018-07-27T01:08:49.842Z,25.60
2018-07-27T01:11:30.608Z,25.70
2018-07-27T01:14:11.341Z,25.70
2018-07-27T01:16:52.303Z,25.60
2018-07-27T01:19:33.329Z,25.70
2018-07-27T01:22:14.213Z,25.70
2018-07-27T01:24:55.169Z,25.70
2018-07-27T01:27:35.893Z,25.70
2018-07-27T01:30:16.840Z,25.70
2018-07-27T01:32:57.480Z,25.70
2018-07-27T01:35:38.337Z,25.70
2018-07-27T01:41:01.293Z,25.70
2018-07-27T01:43:42.348Z,25.70
2018-07-27T01:46:23.676Z,25.70
2018-07-27T01:49:04.631Z,25.80
2018-07-27T01:51:45.320Z,25.80
2018-07-27T01:54:26.033Z,25.80
2018-07-27T01:57:06.669Z,25.80
2018-07-27T01:59:47.816Z,25.80
2018-07-27T02:02:29.688Z,25.80
2018-07-27T02:05:11.065Z,25.80
2018-07-27T02:07:52.225Z,25.90
2018-07-27T02:10:33.729Z,25.90
2018-07-27T02:13:15.188Z,25.90
2018-07-27T02:15:55.880Z,26.00
2018-07-27T02:18:36.769Z,26.00
2018-07-27T02:21:17.731Z,25.90
2018-07-27T02:23:58.676Z,25.90
2018-07-27T02:26:39.734Z,25.90
2018-07-27T02:29:20.409Z,25.90
2018-07-27T02:32:01.421Z,25.90
2018-07-27T02:34:42.229Z,25.80
2018-07-27T02:37:23.309Z,25.90
2018-07-27T02:40:04.259Z,25.80
2018-07-27T02:42:45.049Z,25.70
2018-07-27T02:45:25.778Z,25.70
2018-07-27T02:48:06.463Z,25.70
2018-07-27T02:50:47.988Z,25.70
2018-07-27T02:53:28.928Z,25.60
2018-07-27T02:56:10.467Z,25.60
2018-07-27T02:58:51.161Z,25.60
2018-07-27T03:01:32.367Z,25.50
2018-07-27T03:04:13.109Z,25.50
2018-07-27T03:06:54.514Z,25.40
2018-07-27T03:09:35.324Z,25.40
2018-07-27T03:12:16.268Z,25.30
2018-07-27T03:14:57.060Z,25.30
2018-07-27T03:17:38.044Z,25.30
2018-07-27T03:20:20.433Z,25.20
2018-07-27T03:23:01.697Z,25.20
2018-07-27T03:25:42.384Z,25.20
2018-07-27T03:28:23.333Z,25.20
2018-07-27T03:31:03.989Z,25.10
2018-07-27T03:33:45.001Z,25.10
2018-07-27T03:36:25.856Z,25.00
2018-07-27T03:39:06.524Z,25.10
2018-07-27T03:41:47.203Z,25.00
2018-07-27T03:44:28.315Z,25.00
2018-07-27T03:47:09.450Z,25.00
2018-07-27T03:49:50.168Z,25.10
2018-07-27T03:52:31.121Z,25.20
2018-07-27T03:55:11.689Z,25.30
2018-07-27T03:57:52.526Z,25.30
2018-07-27T04:00:33.180Z,25.40
2018-07-27T04:03:14.336Z,25.30
2018-07-27T04:05:55.485Z,25.30
2018-07-27T04:08:36.646Z,25.30
2018-07-27T04:11:17.417Z,25.30
2018-07-27T04:13:58.469Z,25.20
2018-07-27T04:16:39.725Z,25.20
2018-07-27T04:19:20.764Z,25.20
2018-07-27T04:22:01.781Z,25.20
2018-07-27T04:24:43.025Z,25.20
2018-07-27T04:27:23.861Z,25.20
2018-07-27T04:30:04.878Z,25.20
2018-07-27T04:32:48.977Z,25.20
2018-07-27T04:35:29.941Z,25.20
2018-07-27T04:38:11.117Z,25.30
2018-07-27T04:40:52.584Z,25.30
2018-07-27T04:43:33.909Z,25.30
2018-07-27T04:46:15.429Z,25.40
2018-07-27T04:48:56.378Z,25.40
2018-07-27T04:51:37.221Z,25.40
2018-07-27T04:54:18.219Z,25.30
2018-07-27T04:59:40.734Z,25.30
2018-07-27T05:02:21.681Z,25.30
2018-07-27T05:05:02.469Z,25.30
2018-07-27T05:07:43.245Z,25.30
2018-07-27T05:10:28.361Z,25.30
2018-07-27T05:13:09.100Z,25.40
2018-07-27T05:15:50.653Z,25.50
2018-07-27T05:18:32.089Z,25.60
2018-07-27T05:21:12.918Z,25.60
2018-07-27T05:23:53.733Z,25.80
2018-07-27T05:26:34.773Z,25.90
2018-07-27T05:29:15.796Z,26.00
2018-07-27T05:31:56.820Z,26.20
2018-07-27T05:34:37.617Z,26.40
2018-07-27T05:37:18.416Z,26.70
2018-07-27T05:39:59.860Z,26.80
2018-07-27T05:42:40.801Z,27.00
2018-07-27T05:45:21.420Z,27.10
2018-07-27T05:48:02.337Z,27.20
2018-07-27T05:50:43.038Z,27.30
2018-07-27T05:53:23.961Z,27.40
2018-07-27T05:56:04.633Z,27.70
2018-07-27T05:58:45.666Z,27.90
2018-07-27T06:01:26.824Z,28.10
2018-07-27T06:04:08.140Z,28.10
2018-07-27T06:06:48.697Z,28.20
2018-07-27T06:09:29.233Z,28.20
2018-07-27T06:12:10.100Z,28.30
2018-07-27T06:14:51.075Z,28.30
2018-07-27T06:17:31.797Z,28.30
2018-07-27T06:20:13.184Z,28.30
2018-07-27T06:22:54.640Z,28.50
2018-07-27T06:25:35.642Z,28.70
2018-07-27T06:28:16.641Z,28.90
2018-07-27T06:30:57.552Z,29.10
2018-07-27T06:33:38.913Z,29.50
2018-07-27T06:36:20.097Z,29.90
2018-07-27T06:39:00.757Z,30.20
2018-07-27T06:41:41.956Z,30.50
2018-07-27T06:44:22.452Z,30.70
2018-07-27T06:47:03.382Z,30.80
2018-07-27T06:49:44.373Z,31.00
2018-07-27T06:52:25.349Z,31.20
2018-07-27T06:55:06.177Z,31.40
2018-07-27T06:57:46.929Z,31.60
2018-07-27T07:00:27.764Z,31.90
2018-07-27T07:03:08.684Z,32.20
2018-07-27T07:05:50.077Z,32.50
2018-07-27T07:11:12.231Z,32.50
2018-07-27T07:13:53.100Z,32.50
2018-07-27T07:16:34.893Z,32.30
2018-07-27T07:19:16.329Z,32.20
2018-07-27T07:21:57.157Z,32.10
2018-07-27T07:24:37.831Z,32.00
2018-07-27T07:27:18.436Z,31.80
2018-07-27T07:29:59.397Z,31.70
2018-07-27T07:32:40.361Z,31.60
2018-07-27T07:35:21.169Z,31.50
2018-07-27T07:38:02.492Z,31.20
2018-07-27T07:40:43.542Z,30.90
2018-07-27T07:43:24.725Z,30.80
2018-07-27T07:46:05.585Z,30.90
2018-07-27T07:48:47.013Z,31.00
2018-07-27T07:51:28.062Z,31.10
2018-07-27T07:54:09.093Z,31.20
2018-07-27T07:59:31.325Z,31.60
2018-07-27T08:02:12.273Z,31.90
2018-07-27T08:07:34.677Z,32.60
2018-07-27T08:10:15.736Z,32.90
2018-07-27T08:12:56.790Z,33.30
2018-07-27T08:15:38.002Z,33.60
2018-07-27T08:18:19.169Z,33.80
2018-07-27T08:21:00.294Z,34.10
2018-07-27T08:23:41.070Z,34.20
2018-07-27T08:26:22.409Z,34.20
2018-07-27T08:29:03.403Z,34.10
2018-07-27T08:31:45.761Z,34.00
2018-07-27T08:34:27.338Z,33.90
2018-07-27T08:37:08.434Z,33.70
2018-07-27T08:39:49.395Z,33.50
2018-07-27T08:42:30.486Z,33.40
2018-07-27T08:45:11.616Z,33.50
2018-07-27T08:47:52.676Z,33.50
2018-07-27T08:50:33.419Z,33.30
2018-07-27T08:53:14.358Z,33.20
2018-07-27T08:55:55.212Z,33.10
2018-07-27T08:58:36.616Z,33.00
2018-07-27T09:03:59.104Z,33.10
2018-07-27T09:06:40.273Z,33.10
2018-07-27T09:09:20.970Z,33.10
2018-07-27T09:12:01.902Z,33.00
2018-07-27T09:14:42.542Z,32.80
2018-07-27T09:17:23.831Z,32.70
2018-07-27T09:22:45.706Z,32.90
2018-07-27T09:25:27.463Z,32.90
2018-07-27T09:28:08.296Z,33.00
2018-07-27T09:30:49.398Z,33.10
2018-07-27T09:33:30.817Z,33.10
2018-07-27T09:36:11.589Z,33.10
2018-07-27T09:38:52.386Z,33.10
2018-07-27T09:41:33.237Z,33.20
2018-07-27T09:44:14.097Z,33.30
2018-07-27T09:46:55.329Z,33.50
2018-07-27T09:49:36.490Z,33.60
2018-07-27T09:52:17.469Z,33.60
2018-07-27T09:54:58.839Z,33.50
2018-07-27T09:57:39.706Z,33.50
2018-07-27T10:00:26.406Z,33.50
2018-07-27T10:03:07.965Z,33.50
2018-07-27T10:05:48.882Z,33.30
2018-07-27T10:08:30.353Z,33.20
2018-07-27T10:11:11.016Z,33.10
2018-07-27T10:13:51.801Z,33.00
2018-07-27T10:16:32.621Z,33.00
2018-07-27T10:19:13.701Z,32.90
2018-07-27T10:21:54.897Z,33.00
2018-07-27T10:24:36.245Z,33.00
2018-07-27T10:27:17.339Z,33.10
2018-07-27T10:29:58.206Z,33.20
2018-07-27T10:32:39.201Z,33.20
2018-07-27T10:35:20.185Z,33.10
2018-07-27T10:38:00.840Z,33.10
2018-07-27T10:40:43.327Z,33.00
2018-07-27T10:43:24.514Z,33.00
2018-07-27T10:48:47.745Z,32.90
2018-07-27T10:51:28.698Z,32.90
2018-07-27T10:54:10.188Z,32.90
2018-07-27T10:56:51.385Z,32.90
2018-07-27T10:59:32.855Z,32.90
2018-07-27T11:02:14.153Z,32.80
2018-07-27T11:07:40.702Z,32.90
2018-07-27T11:10:21.577Z,33.10
2018-07-27T11:13:02.714Z,33.20
2018-07-27T11:18:25.750Z,33.10
2018-07-27T11:21:08.919Z,33.10
2018-07-27T11:23:50.937Z,33.10
2018-07-27T11:26:31.647Z,33.20
2018-07-27T11:29:12.970Z,33.20
2018-07-27T11:31:53.762Z,33.30
2018-07-27T11:34:34.971Z,33.20
2018-07-27T11:39:57.061Z,33.30
2018-07-27T11:42:38.041Z,33.30
2018-07-27T11:45:18.947Z,33.40
2018-07-27T11:48:00.226Z,33.50
2018-07-27T11:50:42.085Z,33.60
2018-07-27T11:53:22.747Z,33.60
2018-07-27T11:56:04.014Z,33.60
2018-07-27T11:58:45.150Z,33.60
2018-07-27T12:01:26.478Z,33.50
2018-07-27T12:04:07.655Z,33.30
2018-07-27T12:06:48.545Z,33.10
2018-07-27T12:09:29.361Z,33.10
2018-07-27T12:12:10.642Z,33.00
2018-07-27T12:14:52.232Z,33.00
2018-07-27T12:17:32.990Z,33.00
2018-07-27T12:20:14.173Z,32.90
2018-07-27T12:22:55.514Z,32.90
2018-07-27T12:25:36.666Z,32.90
2018-07-27T12:28:18.528Z,33.00
2018-07-27T12:30:59.759Z,32.90
2018-07-27T12:39:03.491Z,32.90
2018-07-27T12:41:45.545Z,32.90
2018-07-27T12:44:26.740Z,33.00
2018-07-27T12:47:07.571Z,33.00
2018-07-27T12:49:48.441Z,33.00
2018-07-27T12:52:29.754Z,32.90
2018-07-27T12:55:10.847Z,33.00
2018-07-27T12:57:51.862Z,33.00
2018-07-27T13:00:32.982Z,33.10
2018-07-27T13:03:14.644Z,33.00
2018-07-27T13:05:55.666Z,33.10
2018-07-27T13:08:36.546Z,33.10
2018-07-27T13:11:17.861Z,33.00
2018-07-27T13:13:59.295Z,33.00
2018-07-27T13:16:40.582Z,32.90
2018-07-27T13:19:21.502Z,32.90
2018-07-27T13:22:02.612Z,32.90
2018-07-27T13:24:58.582Z,32.80
2018-07-27T13:27:26.418Z,32.90
2018-07-27T13:30:09.309Z,32.90
2018-07-27T13:32:49.858Z,32.90
2018-07-27T13:35:31.330Z,32.90
2018-07-27T13:38:13.432Z,33.00
2018-07-27T13:40:53.963Z,33.00
2018-07-27T13:43:34.636Z,33.00
2018-07-27T13:46:15.403Z,33.10
2018-07-27T13:48:56.140Z,33.10
2018-07-27T13:51:37.290Z,33.00
2018-07-27T13:54:18.413Z,32.90
2018-07-27T13:56:59.312Z,33.00
2018-07-27T13:59:40.060Z,32.90
2018-07-27T14:02:21.132Z,33.00
2018-07-27T14:05:02.051Z,33.00
2018-07-27T14:07:42.759Z,33.10
2018-07-27T14:10:23.554Z,33.10
2018-07-27T14:13:04.874Z,33.10
2018-07-27T14:15:46.356Z,33.10
2018-07-27T14:18:27.227Z,33.10
2018-07-27T14:21:08.358Z,33.20
2018-07-27T14:23:49.245Z,33.20
2018-07-27T14:26:30.288Z,33.20
2018-07-27T14:29:10.875Z,33.10
2018-07-27T14:31:51.881Z,32.90
2018-07-27T14:34:32.558Z,32.70
2018-07-27T14:37:13.646Z,32.60
2018-07-27T14:39:54.888Z,32.40
2018-07-27T14:42:36.534Z,32.20
2018-07-27T14:45:17.606Z,32.10
2018-07-27T14:47:59.099Z,31.90
2018-07-27T14:50:40.165Z,31.70
2018-07-27T14:53:21.526Z,31.60
2018-07-27T14:56:02.724Z,31.40
2018-07-27T14:58:43.711Z,31.20
2018-07-27T15:01:24.390Z,31.10
2018-07-27T15:04:05.308Z,30.90
2018-07-27T15:06:46.078Z,30.80
2018-07-27T15:09:27.245Z,30.70
2018-07-27T15:12:08.003Z,30.60
2018-07-27T15:14:49.117Z,30.50
2018-07-27T15:17:29.857Z,30.40
2018-07-27T15:20:10.682Z,30.30
2018-07-27T15:22:51.581Z,30.40
2018-07-27T15:25:32.911Z,30.50
2018-07-27T15:28:14.520Z,30.70
2018-07-27T15:30:55.500Z,31.00
2018-07-27T15:33:36.514Z,31.20
2018-07-27T15:36:17.482Z,31.50
2018-07-27T15:38:58.092Z,31.60
2018-07-27T15:41:39.000Z,31.80
2018-07-27T15:44:19.837Z,32.00
2018-07-27T15:47:00.754Z,32.20
2018-07-27T15:52:23.229Z,32.20
2018-07-27T15:55:04.209Z,32.20
2018-07-27T15:57:45.097Z,32.10
2018-07-27T16:00:26.381Z,32.10
2018-07-27T16:03:07.241Z,32.00
2018-07-27T16:05:47.933Z,31.80
2018-07-27T16:08:28.670Z,31.80
2018-07-27T16:11:09.931Z,31.60
2018-07-27T16:13:51.295Z,31.50
2018-07-27T16:16:32.234Z,31.30
2018-07-27T16:19:13.190Z,31.20
2018-07-27T16:21:54.061Z,31.00
2018-07-27T16:24:34.868Z,30.80
2018-07-27T16:27:15.742Z,30.70
2018-07-27T16:32:37.517Z,30.50
2018-07-27T16:35:18.338Z,30.50
2018-07-27T16:37:59.340Z,30.50
2018-07-27T16:40:40.090Z,30.40
2018-07-27T16:43:21.469Z,30.30
2018-07-27T16:46:02.216Z,30.20
2018-07-27T16:48:42.844Z,30.10
2018-07-27T16:51:23.750Z,30.10
2018-07-27T16:54:04.974Z,29.90
2018-07-27T16:56:46.485Z,29.80
2018-07-27T16:59:27.307Z,29.70
2018-07-27T17:02:08.425Z,29.50
2018-07-27T17:04:49.947Z,29.40
2018-07-27T17:07:30.729Z,29.30
2018-07-27T17:10:11.503Z,29.20
2018-07-27T17:12:52.298Z,29.10
2018-07-27T17:15:33.235Z,29.00
2018-07-27T17:18:14.293Z,28.90
2018-07-27T17:20:55.765Z,28.80
2018-07-27T17:23:36.933Z,28.80
2018-07-27T17:26:17.729Z,28.70
2018-07-27T17:28:58.625Z,28.60
2018-07-27T17:31:39.780Z,28.60
2018-07-27T17:34:21.270Z,28.50
2018-07-27T17:37:02.184Z,28.50
2018-07-27T17:39:43.221Z,28.40
2018-07-27T17:42:24.164Z,28.40
2018-07-27T17:45:05.010Z,28.40
2018-07-27T17:47:46.090Z,28.40
2018-07-27T17:50:28.612Z,28.40
2018-07-27T17:53:09.709Z,28.40
2018-07-27T17:55:50.554Z,28.30
2018-07-27T17:58:31.337Z,28.30
2018-07-27T18:01:12.462Z,28.30
2018-07-27T18:03:53.526Z,28.30
2018-07-27T18:06:34.578Z,28.30
2018-07-27T18:09:15.225Z,28.20
2018-07-27T18:11:56.098Z,28.20
2018-07-27T18:14:37.059Z,28.00
2018-07-27T18:17:17.853Z,27.90
2018-07-27T18:19:58.978Z,27.80
2018-07-27T18:22:39.740Z,27.70
2018-07-27T18:25:20.604Z,27.70
2018-07-27T18:28:01.762Z,27.70
2018-07-27T18:30:43.013Z,27.60
2018-07-27T18:33:24.440Z,27.50
2018-07-27T18:38:46.586Z,27.40
2018-07-27T18:41:27.265Z,27.30
2018-07-27T18:44:08.540Z,27.20
2018-07-27T18:46:49.262Z,27.20
2018-07-27T18:49:30.297Z,27.10
2018-07-27T18:52:11.549Z,27.00
2018-07-27T18:54:52.148Z,27.00
2018-07-27T18:57:33.156Z,26.90
2018-07-27T19:00:13.943Z,26.90
2018-07-27T19:02:54.735Z,26.80
2018-07-27T19:05:35.787Z,26.80
2018-07-27T19:08:16.470Z,26.70
2018-07-27T19:10:57.632Z,26.70
2018-07-27T19:13:38.911Z,26.70
2018-07-27T19:16:20.590Z,26.70
2018-07-27T19:19:01.410Z,26.70
2018-07-27T19:24:24.155Z,26.50
2018-07-27T19:27:05.322Z,26.50
2018-07-27T19:29:46.404Z,26.50
2018-07-27T19:32:27.787Z,26.40
2018-07-27T19:35:08.556Z,26.40
2018-07-27T19:37:50.098Z,26.30
2018-07-27T19:40:31.371Z,26.20
2018-07-27T19:43:12.232Z,26.20
2018-07-27T19:45:53.198Z,26.20
2018-07-27T19:48:34.581Z,26.20
2018-07-27T19:51:15.309Z,26.20
2018-07-27T19:53:56.306Z,26.10
2018-07-27T19:56:37.165Z,26.10
2018-07-27T19:59:18.203Z,26.10
2018-07-27T20:01:59.124Z,26.10
2018-07-27T20:04:40.023Z,26.10
2018-07-27T20:07:20.846Z,26.10
2018-07-27T20:10:01.628Z,26.10
2018-07-27T20:12:42.642Z,26.10
2018-07-27T20:15:23.629Z,26.00
2018-07-27T20:18:04.321Z,26.00
2018-07-27T20:20:45.177Z,26.00
2018-07-27T20:23:26.518Z,26.00
2018-07-27T20:26:07.961Z,26.00
2018-07-27T20:28:48.730Z,26.00
2018-07-27T20:31:30.249Z,26.00
2018-07-27T20:34:11.043Z,26.00
2018-07-27T20:36:51.758Z,26.00
2018-07-27T20:39:32.598Z,26.10
2018-07-27T20:42:13.693Z,26.10
2018-07-27T20:44:54.672Z,26.10
2018-07-27T20:47:35.538Z,26.10
2018-07-27T20:50:16.783Z,26.10
2018-07-27T20:52:57.965Z,26.20
2018-07-27T20:55:38.649Z,26.20
2018-07-27T20:58:20.026Z,26.20
2018-07-27T21:01:00.694Z,26.30
2018-07-27T21:03:41.629Z,26.40
2018-07-27T21:06:22.615Z,26.40
2018-07-27T21:09:04.533Z,26.40
2018-07-27T21:11:45.542Z,26.40
2018-07-27T21:14:26.580Z,26.30
2018-07-27T21:17:07.602Z,26.30
2018-07-27T21:19:48.527Z,26.30
2018-07-27T21:22:30.074Z,26.40
2018-07-27T21:27:51.802Z,26.40
2018-07-27T21:30:32.465Z,26.30
2018-07-27T21:33:13.822Z,26.40
2018-07-27T21:35:54.458Z,26.30
2018-07-27T21:38:35.485Z,26.30
2018-07-27T21:41:16.721Z,26.30
2018-07-27T21:43:57.470Z,26.30
2018-07-27T21:46:38.441Z,26.30
2018-07-27T21:49:19.278Z,26.30
2018-07-27T21:52:00.225Z,26.30
2018-07-27T21:54:41.344Z,26.30
2018-07-27T21:57:22.221Z,26.30
2018-07-27T22:00:03.377Z,26.30
2018-07-27T22:02:44.678Z,26.30
2018-07-27T22:05:25.774Z,26.40
2018-07-27T22:08:07.073Z,26.30
2018-07-27T22:10:47.946Z,26.30
2018-07-27T22:13:28.905Z,26.30
2018-07-27T22:16:09.938Z,26.30
2018-07-27T22:18:50.645Z,26.30
2018-07-27T22:21:31.633Z,26.20
2018-07-27T22:24:12.541Z,26.20
2018-07-27T22:26:53.359Z,26.20
2018-07-27T22:29:34.170Z,26.30
2018-07-27T22:32:14.977Z,26.40
2018-07-27T22:34:55.917Z,26.30
2018-07-27T22:37:37.438Z,26.30
2018-07-27T22:40:18.633Z,26.30
2018-07-27T22:42:59.525Z,26.30
2018-07-27T22:45:40.318Z,26.30
2018-07-27T22:48:21.025Z,26.20
2018-07-27T22:51:02.096Z,26.30
2018-07-27T22:53:43.175Z,26.30
2018-07-27T22:56:24.573Z,26.20
2018-07-27T22:59:06.033Z,26.20
2018-07-27T23:01:47.502Z,26.20
2018-07-27T23:04:28.164Z,26.20
2018-07-27T23:07:09.341Z,26.20
2018-07-27T23:09:50.017Z,26.20
2018-07-27T23:12:31.447Z,26.20
2018-07-27T23:15:13.368Z,26.20
2018-07-27T23:17:54.085Z,26.10
2018-07-27T23:20:35.672Z,26.20
2018-07-27T23:23:16.506Z,26.20
2018-07-27T23:25:57.572Z,26.20
2018-07-27T23:28:38.391Z,26.20
2018-07-27T23:31:19.431Z,26.20
2018-07-27T23:34:00.394Z,26.10
2018-07-27T23:36:41.589Z,26.10
2018-07-27T23:39:22.585Z,26.10
2018-07-27T23:42:03.714Z,26.10
2018-07-27T23:44:44.642Z,26.00
2018-07-27T23:47:25.747Z,26.00
2018-07-27T23:50:06.964Z,26.00
2018-07-27T23:52:47.772Z,26.00
2018-07-27T23:55:28.657Z,26.00
2018-07-27T23:58:09.805Z,26.00
